createdAt,value
2018-06-09T00:00:04.487Z,12.23
2018-06-09T00:02:33.392Z,12.13
2018-06-09T00:05:02.305Z,13.23
2018-06-09T00:07:31.991Z,14.10
2018-06-09T00:10:01.117Z,13.40
2018-06-09T00:12:30.040Z,14.80
2018-06-09T00:14:59.310Z,13.13
2018-06-09T00:17:28.366Z,15.63
2018-06-09T00:19:57.207Z,15.50
2018-06-09T00:22:26.648Z,14.93
2018-06-09T00:24:55.510Z,14.47
2018-06-09T00:27:24.433Z,14.13
2018-06-09T00:29:53.642Z,14.57
2018-06-09T00:32:22.526Z,14.30
2018-06-09T00:34:51.982Z,15.43
2018-06-09T00:37:21.258Z,15.33
2018-06-09T00:39:50.170Z,16.03
2018-06-09T00:42:19.051Z,16.97
2018-06-09T00:44:48.446Z,17.30
2018-06-09T00:47:17.355Z,17.70
2018-06-09T00:49:46.248Z,17.30
2018-06-09T00:52:15.637Z,17.27
2018-06-09T00:54:45.670Z,18.17
2018-06-09T00:57:14.615Z,16.97
2018-06-09T00:59:43.804Z,19.73
2018-06-09T01:02:12.816Z,15.50
2018-06-09T01:04:41.651Z,16.17
2018-06-09T01:07:10.950Z,15.90
2018-06-09T01:09:40.117Z,16.87
2018-06-09T01:12:09.018Z,16.07
2018-06-09T01:14:39.322Z,18.30
2018-06-09T01:17:08.277Z,17.53
2018-06-09T01:19:38.840Z,17.27
2018-06-09T01:22:07.762Z,17.27
2018-06-09T01:24:37.091Z,17.67
2018-06-09T01:27:06.439Z,18.97
2018-06-09T01:29:35.475Z,16.20
2018-06-09T01:32:06.004Z,19.70
2018-06-09T01:34:36.612Z,18.73
2018-06-09T01:37:05.679Z,19.80
2018-06-09T01:39:34.605Z,20.37
2018-06-09T01:42:04.503Z,21.17
2018-06-09T01:44:33.382Z,23.43
2018-06-09T01:47:03.580Z,23.20
2018-06-09T01:49:33.484Z,23.87
2018-06-09T01:52:04.503Z,23.10
2018-06-09T01:57:00.763Z,22.00
2018-06-09T01:59:29.964Z,23.30
2018-06-09T02:01:58.868Z,24.33
2018-06-09T02:04:27.874Z,24.70
2018-06-09T02:06:57.175Z,24.00
2018-06-09T02:09:26.129Z,23.83
2018-06-09T02:11:55.229Z,23.30
2018-06-09T02:14:24.175Z,22.83
2018-06-09T02:16:53.475Z,23.53
2018-06-09T02:19:22.398Z,22.53
2018-06-09T02:21:51.303Z,21.63
2018-06-09T02:24:20.623Z,22.97
2018-06-09T02:26:49.623Z,23.77
2018-06-09T02:29:18.567Z,22.60
2018-06-09T02:31:47.459Z,23.97
2018-06-09T02:34:16.816Z,24.90
2018-06-09T02:36:45.708Z,26.70
2018-06-09T02:39:14.608Z,25.37
2018-06-09T02:41:44.183Z,25.40
2018-06-09T02:44:13.059Z,26.23
2018-06-09T02:46:41.958Z,28.37
2018-06-09T02:49:11.247Z,30.50
2018-06-09T02:51:40.751Z,31.37
2018-06-09T02:54:09.646Z,32.57
2018-06-09T02:59:05.556Z,33.33
2018-06-09T03:01:34.914Z,31.53
2018-06-09T03:04:04.767Z,33.20
2018-06-09T03:06:34.543Z,35.47
2018-06-09T03:09:05.083Z,33.07
2018-06-09T03:11:34.589Z,33.70
2018-06-09T03:14:04.420Z,35.77
2018-06-09T03:16:33.344Z,35.73
2018-06-09T03:19:02.357Z,36.10
2018-06-09T03:21:31.366Z,38.90
2018-06-09T03:24:00.851Z,36.27
2018-06-09T03:26:31.401Z,36.33
2018-06-09T03:29:00.327Z,42.53
2018-06-09T03:31:29.400Z,38.47
2018-06-09T03:33:58.314Z,41.20
2018-06-09T03:36:27.352Z,42.50
2018-06-09T03:38:56.342Z,42.60
2018-06-09T03:41:25.314Z,43.30
2018-06-09T03:43:54.228Z,45.27
2018-06-09T03:46:23.483Z,43.53
2018-06-09T03:48:52.384Z,42.67
2018-06-09T03:51:21.254Z,43.70
2018-06-09T03:53:50.547Z,45.10
2018-06-09T03:56:19.473Z,44.37
2018-06-09T03:58:48.334Z,43.57
2018-06-09T04:01:17.725Z,41.27
2018-06-09T04:03:49.648Z,43.03
2018-06-09T04:06:22.219Z,43.70
2018-06-09T04:08:51.356Z,41.50
2018-06-09T04:11:20.600Z,43.53
2018-06-09T04:13:49.537Z,44.57
2018-06-09T04:16:18.451Z,41.33
2018-06-09T04:18:47.372Z,40.47
2018-06-09T04:21:16.230Z,42.80
2018-06-09T04:23:45.183Z,42.60
2018-06-09T04:26:14.078Z,40.60
2018-06-09T04:28:44.326Z,41.30
2018-06-09T04:31:13.236Z,44.13
2018-06-09T04:33:42.152Z,43.90
2018-06-09T04:36:11.070Z,44.23
2018-06-09T04:38:40.054Z,43.63
2018-06-09T04:41:09.485Z,46.10
2018-06-09T04:43:38.612Z,44.43
2018-06-09T04:46:07.560Z,50.97
2018-06-09T04:48:36.768Z,46.07
2018-06-09T04:51:05.740Z,48.33
2018-06-09T04:53:34.869Z,45.00
2018-06-09T04:56:04.909Z,44.13
2018-06-09T04:58:33.917Z,44.00
2018-06-09T05:01:02.984Z,42.30
2018-06-09T05:03:33.030Z,47.20
2018-06-09T05:06:02.269Z,46.73
2018-06-09T05:08:31.324Z,43.60
2018-06-09T05:11:01.034Z,43.77
2018-06-09T05:13:30.126Z,45.50
2018-06-09T05:16:02.866Z,46.90
2018-06-09T05:18:35.227Z,48.10
2018-06-09T05:21:07.321Z,47.20
2018-06-09T05:23:40.004Z,46.43
2018-06-09T05:26:14.587Z,47.27
2018-06-09T05:28:47.269Z,47.80
2018-06-09T05:31:19.295Z,48.50
2018-06-09T05:33:53.985Z,47.30
2018-06-09T05:36:25.486Z,45.37
2018-06-09T05:38:57.846Z,44.83
2018-06-09T05:41:33.562Z,44.77
2018-06-09T05:44:06.744Z,45.57
2018-06-09T05:46:37.862Z,48.63
2018-06-09T05:49:09.961Z,45.90
2018-06-09T05:51:39.526Z,47.23
2018-06-09T05:54:10.585Z,49.00
2018-06-09T05:56:44.748Z,49.50
2018-06-09T05:59:14.797Z,54.77
2018-06-09T06:01:50.254Z,51.73
2018-06-09T06:04:40.608Z,46.27
2018-06-09T06:07:12.889Z,47.40
2018-06-09T06:09:46.410Z,47.00
2018-06-09T06:12:18.735Z,45.23
2018-06-09T06:15:02.232Z,43.43
2018-06-09T06:17:36.635Z,46.70
2018-06-09T06:20:09.391Z,46.53
2018-06-09T06:22:40.759Z,45.20
2018-06-09T06:25:13.272Z,43.10
2018-06-09T06:27:48.136Z,44.87
2018-06-09T06:33:09.424Z,46.17
2018-06-09T06:35:43.000Z,43.27
2018-06-09T06:38:14.580Z,45.27
2018-06-09T06:40:50.710Z,43.37
2018-06-09T06:43:21.917Z,41.60
2018-06-09T06:45:54.401Z,38.57
2018-06-09T06:48:26.419Z,41.03
2018-06-09T06:50:59.602Z,34.07
2018-06-09T06:53:30.113Z,34.10
2018-06-09T06:56:02.942Z,33.53
2018-06-09T06:58:34.674Z,36.93
2018-06-09T07:01:03.889Z,35.20
2018-06-09T07:03:34.024Z,36.17
2018-06-09T07:06:04.608Z,35.57
2018-06-09T07:08:33.746Z,32.70
2018-06-09T07:11:02.830Z,28.83
2018-06-09T07:13:33.667Z,28.20
2018-06-09T07:16:04.535Z,27.30
2018-06-09T07:18:33.433Z,26.73
2018-06-09T07:21:02.899Z,26.77
2018-06-09T07:23:31.866Z,27.73
2018-06-09T07:26:00.763Z,25.40
2018-06-09T07:28:31.187Z,25.37
2018-06-09T07:31:00.171Z,24.07
2018-06-09T07:33:29.103Z,26.60
2018-06-09T07:38:28.419Z,28.53
2018-06-09T07:40:57.683Z,28.83
2018-06-09T07:43:27.084Z,27.40
2018-06-09T07:45:56.169Z,31.47
2018-06-09T07:48:25.118Z,30.90
2018-06-09T07:50:54.496Z,29.77
2018-06-09T07:53:23.466Z,29.00
2018-06-09T07:55:52.708Z,32.77
2018-06-09T07:58:21.946Z,34.07
2018-06-09T08:00:50.900Z,33.13
2018-06-09T08:03:19.793Z,34.40
2018-06-09T08:05:49.087Z,36.37
2018-06-09T08:08:18.294Z,35.00
2018-06-09T08:10:47.284Z,35.27
2018-06-09T08:13:16.531Z,37.13
2018-06-09T08:15:45.995Z,38.90
2018-06-09T08:18:14.923Z,35.53
2018-06-09T08:20:44.530Z,31.80
2018-06-09T08:23:13.484Z,31.90
2018-06-09T08:25:42.499Z,29.73
2018-06-09T08:28:12.114Z,32.37
2018-06-09T08:30:41.514Z,34.33
2018-06-09T08:33:10.411Z,40.50
2018-06-09T08:35:42.477Z,39.40
2018-06-09T08:38:11.411Z,41.10
2018-06-09T08:40:41.212Z,38.97
2018-06-09T08:43:10.455Z,34.67
2018-06-09T08:45:40.378Z,36.83
2018-06-09T08:48:09.287Z,32.27
2018-06-09T08:50:38.570Z,35.80
2018-06-09T08:53:07.535Z,39.30
2018-06-09T08:55:36.899Z,33.50
2018-06-09T08:58:06.687Z,36.60
2018-06-09T09:00:36.882Z,36.83
2018-06-09T09:03:05.862Z,39.23
2018-06-09T09:05:36.477Z,37.90
2018-06-09T09:08:06.817Z,34.00
2018-06-09T09:10:35.751Z,36.53
2018-06-09T09:13:06.087Z,38.87
2018-06-09T09:15:35.067Z,34.03
2018-06-09T09:18:04.869Z,34.30
2018-06-09T09:20:36.108Z,31.80
2018-06-09T09:23:05.137Z,36.80
2018-06-09T09:25:34.592Z,36.53
2018-06-09T09:28:05.202Z,37.60
2018-06-09T09:30:34.933Z,33.73
2018-06-09T09:33:04.119Z,32.97
2018-06-09T09:35:34.919Z,37.80
2018-06-09T09:38:04.995Z,38.80
2018-06-09T09:40:34.948Z,39.40
2018-06-09T09:43:04.503Z,37.23
2018-06-09T09:45:33.870Z,33.03
2018-06-09T09:48:03.705Z,33.07
2018-06-09T09:50:33.795Z,34.73
2018-06-09T09:53:03.922Z,35.80
2018-06-09T09:55:32.888Z,35.10
2018-06-09T09:58:04.615Z,33.90
2018-06-09T10:00:39.602Z,30.90
2018-06-09T10:03:08.542Z,32.10
2018-06-09T10:05:38.044Z,29.70
2018-06-09T10:08:07.002Z,29.57
2018-06-09T10:10:36.451Z,29.70
2018-06-09T10:13:05.391Z,33.50
2018-06-09T10:15:34.351Z,26.40
2018-06-09T10:18:05.969Z,27.23
2018-06-09T10:20:34.854Z,25.17
2018-06-09T10:23:03.950Z,27.50
2018-06-09T10:25:33.246Z,23.57
2018-06-09T10:28:04.226Z,27.13
2018-06-09T10:30:33.886Z,25.67
2018-06-09T10:33:03.196Z,26.73
2018-06-09T10:35:34.986Z,21.10
2018-06-09T10:38:04.697Z,19.40
2018-06-09T10:40:34.659Z,18.90
2018-06-09T10:43:03.930Z,20.40
2018-06-09T10:45:33.990Z,21.70
2018-06-09T10:48:05.208Z,20.37
2018-06-09T10:50:35.220Z,21.90
2018-06-09T10:53:08.107Z,21.53
2018-06-09T10:55:37.041Z,22.80
2018-06-09T10:58:06.282Z,19.73
2018-06-09T11:00:35.282Z,20.13
2018-06-09T11:03:04.889Z,17.70
2018-06-09T11:05:34.923Z,19.27
2018-06-09T11:08:06.163Z,19.43
2018-06-09T11:10:35.440Z,19.33
2018-06-09T11:13:04.914Z,24.53
2018-06-09T11:15:33.932Z,19.70
2018-06-09T11:18:04.692Z,15.60
2018-06-09T11:20:34.453Z,19.40
2018-06-09T11:23:03.918Z,15.00
2018-06-09T11:25:34.435Z,16.47
2018-06-09T11:28:06.022Z,14.77
2018-06-09T11:30:35.810Z,14.50
2018-06-09T11:33:04.855Z,15.63
2018-06-09T11:35:33.710Z,15.10
2018-06-09T11:38:04.570Z,16.87
2018-06-09T11:40:34.656Z,15.60
2018-06-09T11:43:03.970Z,15.20
2018-06-09T11:45:32.848Z,13.97
2018-06-09T11:48:03.268Z,14.13
2018-06-09T11:50:33.197Z,14.20
2018-06-09T11:53:02.239Z,14.23
2018-06-09T11:55:32.996Z,13.93
2018-06-09T11:58:03.694Z,16.60
2018-06-09T12:00:34.473Z,19.10
2018-06-09T12:03:03.783Z,16.43
2018-06-09T12:05:33.811Z,12.50
2018-06-09T12:08:04.687Z,14.53
2018-06-09T12:10:33.595Z,18.43
2018-06-09T12:13:03.272Z,12.67
2018-06-09T12:15:32.223Z,13.20
2018-06-09T12:18:01.199Z,11.60
2018-06-09T12:20:30.530Z,13.03
2018-06-09T12:23:00.295Z,13.17
2018-06-09T12:25:30.183Z,14.70
2018-06-09T12:27:59.612Z,13.80
2018-06-09T12:30:28.804Z,12.77
2018-06-09T12:32:57.739Z,14.07
2018-06-09T12:35:27.065Z,12.77
2018-06-09T12:37:55.940Z,12.70
2018-06-09T12:40:24.894Z,12.30
2018-06-09T12:42:54.172Z,11.17
2018-06-09T12:45:23.123Z,15.70
2018-06-09T12:47:52.077Z,12.77
2018-06-09T12:50:21.320Z,13.97
2018-06-09T12:52:50.285Z,12.73
2018-06-09T12:55:19.177Z,10.67
2018-06-09T12:57:48.986Z,10.93
2018-06-09T13:00:17.835Z,10.63
2018-06-09T13:02:46.646Z,10.40
2018-06-09T13:05:16.128Z,11.07
2018-06-09T13:07:44.954Z,10.90
2018-06-09T13:10:13.795Z,9.50
2018-06-09T13:12:44.533Z,9.50
2018-06-09T13:15:13.455Z,10.17
2018-06-09T13:17:42.330Z,9.13
2018-06-09T13:20:12.173Z,11.57
2018-06-09T13:22:41.112Z,8.90
2018-06-09T13:25:10.017Z,9.90
2018-06-09T13:27:39.505Z,9.43
2018-06-09T13:30:08.415Z,9.00
2018-06-09T13:32:37.318Z,8.33
2018-06-09T13:35:06.821Z,9.50
2018-06-09T13:37:35.840Z,9.70
2018-06-09T13:40:05.414Z,8.77
2018-06-09T13:42:35.867Z,9.20
2018-06-09T13:45:05.621Z,8.20
2018-06-09T13:47:36.613Z,9.40
2018-06-09T13:50:06.498Z,8.70
2018-06-09T13:52:35.796Z,9.90
2018-06-09T13:55:05.991Z,9.70
2018-06-09T13:57:35.898Z,9.90
2018-06-09T14:00:06.201Z,10.13
2018-06-09T14:02:35.331Z,9.43
2018-06-09T14:05:05.783Z,9.90
2018-06-09T14:07:35.437Z,9.70
2018-06-09T14:10:05.183Z,10.47
2018-06-09T14:12:34.938Z,8.67
2018-06-09T14:15:04.147Z,9.10
2018-06-09T14:17:35.658Z,9.30
2018-06-09T14:20:05.750Z,8.40
2018-06-09T14:22:36.684Z,9.10
2018-06-09T14:25:06.813Z,9.17
2018-06-09T14:27:38.166Z,8.23
2018-06-09T14:30:07.148Z,8.60
2018-06-09T14:32:36.106Z,9.20
2018-06-09T14:35:05.543Z,8.07
2018-06-09T14:37:34.931Z,8.00
2018-06-09T14:40:04.847Z,7.90
2018-06-09T14:42:34.391Z,8.07
2018-06-09T14:45:03.487Z,8.30
2018-06-09T14:47:32.627Z,8.80
2018-06-09T14:50:03.964Z,6.23
2018-06-09T14:52:32.892Z,7.00
2018-06-09T14:55:01.791Z,8.37
2018-06-09T14:57:32.966Z,7.57
2018-06-09T15:00:02.920Z,7.70
2018-06-09T15:02:33.642Z,9.57
2018-06-09T15:05:02.942Z,8.23
2018-06-09T15:07:31.816Z,10.20
2018-06-09T15:10:02.091Z,8.53
2018-06-09T15:12:32.302Z,7.57
2018-06-09T15:15:01.423Z,7.40
2018-06-09T15:17:31.648Z,7.50
2018-06-09T15:20:01.242Z,7.53
2018-06-09T15:22:32.073Z,8.40
2018-06-09T15:25:01.238Z,7.87
2018-06-09T15:27:31.569Z,6.50
2018-06-09T15:30:00.567Z,7.13
2018-06-09T15:32:29.659Z,8.60
2018-06-09T15:35:00.077Z,9.20
2018-06-09T15:37:29.041Z,13.40
2018-06-09T15:39:57.979Z,9.03
2018-06-09T15:42:27.421Z,10.03
2018-06-09T15:44:57.068Z,9.10
2018-06-09T15:47:27.144Z,10.97
2018-06-09T15:49:57.396Z,11.07
2018-06-09T15:52:26.351Z,10.60
2018-06-09T15:54:56.617Z,10.00
2018-06-09T15:57:26.776Z,10.37
2018-06-09T15:59:58.547Z,10.67
2018-06-09T16:02:28.215Z,9.70
2018-06-09T16:04:57.548Z,10.07
2018-06-09T16:07:26.665Z,9.97
2018-06-09T16:09:55.716Z,10.77
2018-06-09T16:12:25.123Z,10.40
2018-06-09T16:14:54.513Z,12.37
2018-06-09T16:17:23.498Z,11.07
2018-06-09T16:19:53.040Z,10.83
2018-06-09T16:22:22.139Z,9.87
2018-06-09T16:24:51.351Z,11.93
2018-06-09T16:27:20.803Z,14.27
2018-06-09T16:29:49.723Z,14.17
2018-06-09T16:32:19.049Z,20.03
2018-06-09T16:34:48.115Z,22.30
2018-06-09T16:37:17.116Z,23.60
2018-06-09T16:39:46.268Z,26.17
2018-06-09T16:42:15.292Z,22.57
2018-06-09T16:44:45.509Z,23.77
2018-06-09T16:47:14.535Z,26.80
2018-06-09T16:49:43.566Z,26.77
2018-06-09T16:52:13.069Z,23.20
2018-06-09T16:54:42.370Z,23.60
2018-06-09T16:57:11.298Z,23.20
2018-06-09T17:02:06.919Z,16.17
2018-06-09T17:04:36.645Z,17.40
2018-06-09T17:07:05.986Z,14.87
2018-06-09T17:09:35.223Z,13.33
2018-06-09T17:12:05.160Z,13.63
2018-06-09T17:14:34.579Z,14.00
2018-06-09T17:17:04.375Z,12.53
2018-06-09T17:19:33.964Z,12.57
2018-06-09T17:22:05.591Z,10.73
2018-06-09T17:24:35.669Z,11.20
2018-06-09T17:27:05.630Z,10.33
2018-06-09T17:29:35.892Z,10.30
2018-06-09T17:32:06.562Z,11.00
2018-06-09T17:34:37.326Z,7.47
2018-06-09T17:37:07.035Z,6.57
2018-06-09T17:39:36.423Z,7.97
2018-06-09T17:42:07.787Z,7.23
2018-06-09T17:44:37.302Z,6.47
2018-06-09T17:47:06.233Z,6.57
2018-06-09T17:49:35.163Z,6.90
2018-06-09T17:52:05.584Z,7.00
2018-06-09T17:54:35.297Z,5.87
2018-06-09T17:57:04.358Z,6.70
2018-06-09T17:59:33.701Z,7.50
2018-06-09T18:02:04.503Z,7.17
2018-06-09T18:04:34.241Z,8.27
2018-06-09T18:07:03.973Z,6.60
2018-06-09T18:09:32.819Z,6.23
2018-06-09T18:12:01.824Z,5.93
2018-06-09T18:14:31.392Z,6.17
2018-06-09T18:17:00.498Z,7.00
2018-06-09T18:19:30.010Z,7.03
2018-06-09T18:21:59.791Z,7.57
2018-06-09T18:24:28.875Z,6.73
2018-06-09T18:26:58.068Z,9.10
2018-06-09T18:29:27.343Z,10.97
2018-06-09T18:31:56.398Z,11.77
2018-06-09T18:34:25.307Z,11.23
2018-06-09T18:36:54.542Z,12.10
2018-06-09T18:39:23.587Z,12.90
2018-06-09T18:41:53.934Z,11.47
2018-06-09T18:44:22.899Z,12.33
2018-06-09T18:46:51.871Z,13.20
2018-06-09T18:49:20.827Z,12.57
2018-06-09T18:51:49.712Z,13.93
2018-06-09T18:54:19.095Z,14.60
2018-06-09T18:56:48.679Z,12.30
2018-06-09T18:59:17.529Z,11.60
2018-06-09T19:01:46.877Z,12.53
2018-06-09T19:04:15.853Z,11.50
2018-06-09T19:06:45.383Z,13.63
2018-06-09T19:09:15.039Z,13.90
2018-06-09T19:11:44.223Z,15.43
2018-06-09T19:14:13.228Z,25.13
2018-06-09T19:16:42.610Z,14.10
2018-06-09T19:19:11.505Z,14.23
2018-06-09T19:21:42.232Z,15.00
2018-06-09T19:24:11.607Z,15.40
2018-06-09T19:26:40.794Z,15.20
2018-06-09T19:29:09.816Z,15.67
2018-06-09T19:31:40.501Z,15.57
2018-06-09T19:34:09.522Z,16.37
2018-06-09T19:36:39.599Z,16.10
2018-06-09T19:39:09.322Z,16.80
2018-06-09T19:41:38.294Z,15.03
2018-06-09T19:44:08.176Z,14.90
2018-06-09T19:46:39.511Z,15.37
2018-06-09T19:49:08.483Z,15.70
2018-06-09T19:51:37.439Z,15.63
2018-06-09T19:54:06.718Z,15.50
2018-06-09T19:56:36.021Z,16.27
2018-06-09T19:59:05.149Z,18.80
2018-06-09T20:01:34.888Z,20.03
2018-06-09T20:04:04.595Z,18.10
2018-06-09T20:06:35.634Z,20.23
2018-06-09T20:09:06.276Z,21.13
2018-06-09T20:11:36.733Z,23.77
2018-06-09T20:14:06.746Z,24.50
2018-06-09T20:16:36.619Z,23.90
2018-06-09T20:19:06.117Z,24.53
2018-06-09T20:21:35.043Z,22.57
2018-06-09T20:24:04.673Z,20.87
2018-06-09T20:26:34.056Z,22.00
2018-06-09T20:29:03.022Z,21.30
2018-06-09T20:31:31.994Z,22.90
2018-06-09T20:34:02.979Z,22.93
2018-06-09T20:36:32.282Z,21.50
2018-06-09T20:39:01.312Z,23.73
2018-06-09T20:41:31.404Z,26.50
2018-06-09T20:44:00.407Z,25.00
2018-06-09T20:46:29.508Z,20.77
2018-06-09T20:48:58.588Z,25.60
2018-06-09T20:51:27.458Z,23.00
2018-06-09T20:53:56.409Z,22.30
2018-06-09T20:56:25.248Z,20.90
2018-06-09T20:58:55.026Z,21.00
2018-06-09T21:01:23.957Z,22.17
2018-06-09T21:03:52.932Z,23.50
2018-06-09T21:06:22.167Z,21.83
2018-06-09T21:08:51.103Z,21.57
2018-06-09T21:11:20.061Z,21.33
2018-06-09T21:13:49.449Z,21.43
2018-06-09T21:16:18.439Z,23.17
2018-06-09T21:18:47.792Z,21.60
2018-06-09T21:21:16.691Z,24.00
2018-06-09T21:23:45.614Z,22.37
2018-06-09T21:26:15.375Z,21.83
2018-06-09T21:28:49.590Z,23.13
2018-06-09T21:31:23.432Z,23.30
2018-06-09T21:34:05.571Z,22.07
2018-06-09T21:36:40.655Z,22.53
2018-06-09T21:39:17.943Z,24.43
2018-06-09T21:41:52.215Z,24.27
2018-06-09T21:44:26.338Z,23.90
2018-06-09T21:46:55.753Z,23.37
2018-06-09T21:49:24.732Z,26.77
2018-06-09T21:51:54.273Z,38.10
2018-06-09T21:54:23.590Z,26.90
2018-06-09T21:56:52.657Z,25.10
2018-06-09T21:59:21.800Z,25.30
2018-06-09T22:01:50.979Z,26.07
2018-06-09T22:04:19.924Z,22.27
2018-06-09T22:06:49.231Z,23.50
2018-06-09T22:09:18.135Z,22.03
2018-06-09T22:11:47.377Z,21.97
2018-06-09T22:14:16.363Z,21.70
2018-06-09T22:16:45.249Z,22.90
2018-06-09T22:19:15.598Z,23.03
2018-06-09T22:21:44.585Z,24.20
2018-06-09T22:24:13.586Z,22.83
2018-06-09T22:26:44.294Z,23.10
2018-06-09T22:29:13.260Z,23.00
2018-06-09T22:31:42.261Z,23.07
2018-06-09T22:34:11.590Z,25.23
2018-06-09T22:36:41.340Z,25.10
2018-06-09T22:39:10.305Z,24.17
2018-06-09T22:41:39.859Z,25.83
2018-06-09T22:44:08.789Z,25.67
2018-06-09T22:46:37.928Z,25.67
2018-06-09T22:49:07.228Z,25.43
2018-06-09T22:51:36.179Z,28.37
2018-06-09T22:54:06.523Z,24.20
2018-06-09T22:56:35.928Z,25.40
2018-06-09T22:59:04.966Z,22.33
2018-06-09T23:01:37.263Z,21.20
2018-06-09T23:04:09.919Z,19.77
2018-06-09T23:06:41.526Z,20.80
2018-06-09T23:09:10.506Z,19.40
2018-06-09T23:11:39.805Z,19.47
2018-06-09T23:14:08.725Z,20.63
2018-06-09T23:16:38.130Z,22.63
2018-06-09T23:19:07.490Z,21.67
2018-06-09T23:21:37.351Z,21.40
2018-06-09T23:24:06.352Z,24.63
2018-06-09T23:26:35.955Z,28.47
2018-06-09T23:29:05.095Z,26.10
2018-06-09T23:31:35.017Z,26.00
2018-06-09T23:34:04.947Z,29.30
2018-06-09T23:36:34.659Z,26.87
2018-06-09T23:39:04.381Z,25.53
2018-06-09T23:41:33.338Z,25.50
2018-06-09T23:44:04.125Z,26.57
2018-06-09T23:46:33.146Z,25.30
2018-06-09T23:49:02.185Z,25.40
2018-06-09T23:51:31.654Z,25.17
2018-06-09T23:54:01.032Z,25.40
2018-06-09T23:56:32.392Z,24.47
2018-06-09T23:59:04.215Z,23.07
